sensor_id;sensor_type;location;lat;lon;timestamp;temperature;humidity
60027;DHT22;45891;53.006;6.512;2023-03-14T00:01:13;9.70;99.90
60027;DHT22;45891;53.006;6.512;2023-03-14T00:03:40;9.70;99.90
60027;DHT22;45891;53.006;6.512;2023-03-14T00:06:06;9.90;99.90
60027;DHT22;45891;53.006;6.512;2023-03-14T00:08:32;9.90;99.90
60027;DHT22;45891;53.006;6.512;2023-03-14T00:11:03;10.00;99.90
60027;DHT22;45891;53.006;6.512;2023-03-14T00:13:29;10.10;99.90
60027;DHT22;45891;53.006;6.512;2023-03-14T00:15:55;10.10;99.90
60027;DHT22;45891;53.006;6.512;2023-03-14T00:18:26;10.20;99.90
60027;DHT22;45891;53.006;6.512;2023-03-14T00:20:52;10.20;99.90
60027;DHT22;45891;53.006;6.512;2023-03-14T00:23:18;10.20;99.90
60027;DHT22;45891;53.006;6.512;2023-03-14T00:25:44;10.30;99.90
60027;DHT22;45891;53.006;6.512;2023-03-14T00:28:10;10.40;99.90
60027;DHT22;45891;53.006;6.512;2023-03-14T00:30:37;10.40;99.90
60027;DHT22;45891;53.006;6.512;2023-03-14T00:33:03;10.50;99.90
60027;DHT22;45891;53.006;6.512;2023-03-14T00:35:28;10.60;99.90
60027;DHT22;45891;53.006;6.512;2023-03-14T00:37:54;10.70;99.90
60027;DHT22;45891;53.006;6.512;2023-03-14T00:40:20;10.70;99.90
60027;DHT22;45891;53.006;6.512;2023-03-14T00:42:46;10.80;99.90
60027;DHT22;45891;53.006;6.512;2023-03-14T00:45:12;10.80;99.90
60027;DHT22;45891;53.006;6.512;2023-03-14T00:47:38;10.80;99.90
60027;DHT22;45891;53.006;6.512;2023-03-14T00:50:04;10.80;99.90
60027;DHT22;45891;53.006;6.512;2023-03-14T00:52:30;10.80;99.90
60027;DHT22;45891;53.006;6.512;2023-03-14T00:54:56;10.80;99.90
60027;DHT22;45891;53.006;6.512;2023-03-14T00:57:22;10.70;99.90
60027;DHT22;45891;53.006;6.512;2023-03-14T00:59:48;10.60;99.90
60027;DHT22;45891;53.006;6.512;2023-03-14T01:02:14;10.60;99.90
60027;DHT22;45891;53.006;6.512;2023-03-14T01:04:40;10.60;99.90
60027;DHT22;45891;53.006;6.512;2023-03-14T01:07:08;10.70;99.90
60027;DHT22;45891;53.006;6.512;2023-03-14T01:09:34;10.70;99.90
60027;DHT22;45891;53.006;6.512;2023-03-14T01:12:00;10.80;99.90
60027;DHT22;45891;53.006;6.512;2023-03-14T01:14:26;10.80;99.90
60027;DHT22;45891;53.006;6.512;2023-03-14T01:16:52;10.80;99.90
60027;DHT22;45891;53.006;6.512;2023-03-14T01:19:18;10.80;99.90
60027;DHT22;45891;53.006;6.512;2023-03-14T01:21:44;10.80;99.90
60027;DHT22;45891;53.006;6.512;2023-03-14T01:24:10;10.70;99.90
60027;DHT22;45891;53.006;6.512;2023-03-14T01:26:36;10.70;99.90
60027;DHT22;45891;53.006;6.512;2023-03-14T01:29:02;10.70;99.90
60027;DHT22;45891;53.006;6.512;2023-03-14T01:31:29;10.70;99.90
60027;DHT22;45891;53.006;6.512;2023-03-14T01:33:55;10.70;99.90
60027;DHT22;45891;53.006;6.512;2023-03-14T01:36:21;10.70;99.90
60027;DHT22;45891;53.006;6.512;2023-03-14T01:38:47;10.60;99.90
60027;DHT22;45891;53.006;6.512;2023-03-14T01:41:17;10.60;99.90
60027;DHT22;45891;53.006;6.512;2023-03-14T01:43:44;10.60;99.90
60027;DHT22;45891;53.006;6.512;2023-03-14T01:46:21;10.50;99.90
60027;DHT22;45891;53.006;6.512;2023-03-14T01:51:16;10.50;99.90
60027;DHT22;45891;53.006;6.512;2023-03-14T01:53:43;10.50;99.90
60027;DHT22;45891;53.006;6.512;2023-03-14T01:56:09;10.50;99.90
60027;DHT22;45891;53.006;6.512;2023-03-14T01:58:36;10.50;99.90
60027;DHT22;45891;53.006;6.512;2023-03-14T02:01:05;10.40;99.90
60027;DHT22;45891;53.006;6.512;2023-03-14T02:03:33;10.40;99.90
60027;DHT22;45891;53.006;6.512;2023-03-14T02:06:03;10.40;99.90
60027;DHT22;45891;53.006;6.512;2023-03-14T02:08:30;10.30;99.90
60027;DHT22;45891;53.006;6.512;2023-03-14T02:10:56;10.30;99.90
60027;DHT22;45891;53.006;6.512;2023-03-14T02:13:22;10.30;99.90
60027;DHT22;45891;53.006;6.512;2023-03-14T02:15:48;10.30;99.90
60027;DHT22;45891;53.006;6.512;2023-03-14T02:18:14;10.30;99.90
60027;DHT22;45891;53.006;6.512;2023-03-14T02:20:47;10.20;99.90
60027;DHT22;45891;53.006;6.512;2023-03-14T02:23:15;10.20;99.90
60027;DHT22;45891;53.006;6.512;2023-03-14T02:25:45;10.20;99.90
60027;DHT22;45891;53.006;6.512;2023-03-14T02:28:13;10.20;99.90
60027;DHT22;45891;53.006;6.512;2023-03-14T02:30:39;10.20;99.90
60027;DHT22;45891;53.006;6.512;2023-03-14T02:35:33;10.10;99.90
60027;DHT22;45891;53.006;6.512;2023-03-14T02:40:45;10.10;99.90
60027;DHT22;45891;53.006;6.512;2023-03-14T02:43:10;10.10;99.90
60027;DHT22;45891;53.006;6.512;2023-03-14T02:45:43;10.10;99.90
60027;DHT22;45891;53.006;6.512;2023-03-14T02:48:18;10.10;99.90
60027;DHT22;45891;53.006;6.512;2023-03-14T02:50:45;10.10;99.90
60027;DHT22;45891;53.006;6.512;2023-03-14T02:53:13;10.00;99.90
60027;DHT22;45891;53.006;6.512;2023-03-14T02:55:39;10.00;99.90
60027;DHT22;45891;53.006;6.512;2023-03-14T02:58:05;10.00;99.90
60027;DHT22;45891;53.006;6.512;2023-03-14T03:00:31;10.00;99.90
60027;DHT22;45891;53.006;6.512;2023-03-14T03:02:57;10.00;99.90
60027;DHT22;45891;53.006;6.512;2023-03-14T03:05:23;10.00;99.90
60027;DHT22;45891;53.006;6.512;2023-03-14T03:07:50;9.90;99.90
60027;DHT22;45891;53.006;6.512;2023-03-14T03:10:16;9.90;99.90
60027;DHT22;45891;53.006;6.512;2023-03-14T03:12:42;9.80;99.90
60027;DHT22;45891;53.006;6.512;2023-03-14T03:15:08;9.80;99.90
60027;DHT22;45891;53.006;6.512;2023-03-14T03:17:34;9.70;99.90
60027;DHT22;45891;53.006;6.512;2023-03-14T03:20:00;9.60;99.90
60027;DHT22;45891;53.006;6.512;2023-03-14T03:22:25;9.50;99.90
60027;DHT22;45891;53.006;6.512;2023-03-14T03:24:51;9.50;99.90
60027;DHT22;45891;53.006;6.512;2023-03-14T03:27:17;9.50;99.90
60027;DHT22;45891;53.006;6.512;2023-03-14T03:29:43;9.50;99.90
60027;DHT22;45891;53.006;6.512;2023-03-14T03:32:09;9.40;99.90
60027;DHT22;45891;53.006;6.512;2023-03-14T03:34:35;9.40;99.90
60027;DHT22;45891;53.006;6.512;2023-03-14T03:37:01;9.40;99.90
60027;DHT22;45891;53.006;6.512;2023-03-14T03:39:27;9.30;99.90
60027;DHT22;45891;53.006;6.512;2023-03-14T03:41:53;9.40;99.90
60027;DHT22;45891;53.006;6.512;2023-03-14T03:44:19;9.40;99.90
60027;DHT22;45891;53.006;6.512;2023-03-14T03:46:45;9.40;99.90
60027;DHT22;45891;53.006;6.512;2023-03-14T03:49:10;9.40;99.90
60027;DHT22;45891;53.006;6.512;2023-03-14T03:51:36;9.30;99.90
60027;DHT22;45891;53.006;6.512;2023-03-14T03:54:02;9.30;99.90
60027;DHT22;45891;53.006;6.512;2023-03-14T03:56:28;9.20;99.90
60027;DHT22;45891;53.006;6.512;2023-03-14T03:58:54;9.20;99.90
60027;DHT22;45891;53.006;6.512;2023-03-14T04:01:20;9.20;99.90
60027;DHT22;45891;53.006;6.512;2023-03-14T04:03:46;9.20;99.90
60027;DHT22;45891;53.006;6.512;2023-03-14T04:06:12;9.20;99.90
60027;DHT22;45891;53.006;6.512;2023-03-14T04:08:38;9.10;99.90
60027;DHT22;45891;53.006;6.512;2023-03-14T04:11:06;9.10;99.90
60027;DHT22;45891;53.006;6.512;2023-03-14T04:13:32;9.10;99.90
60027;DHT22;45891;53.006;6.512;2023-03-14T04:15:58;9.10;99.90
60027;DHT22;45891;53.006;6.512;2023-03-14T04:18:24;9.10;99.90
60027;DHT22;45891;53.006;6.512;2023-03-14T04:20:51;9.00;99.90
60027;DHT22;45891;53.006;6.512;2023-03-14T04:23:17;9.00;99.90
60027;DHT22;45891;53.006;6.512;2023-03-14T04:25:42;9.00;99.90
60027;DHT22;45891;53.006;6.512;2023-03-14T04:28:08;8.90;99.90
60027;DHT22;45891;53.006;6.512;2023-03-14T04:30:34;8.90;99.90
60027;DHT22;45891;53.006;6.512;2023-03-14T04:33:00;8.90;99.90
60027;DHT22;45891;53.006;6.512;2023-03-14T04:35:26;8.90;99.90
60027;DHT22;45891;53.006;6.512;2023-03-14T04:37:52;8.90;99.90
60027;DHT22;45891;53.006;6.512;2023-03-14T04:40:18;8.90;99.90
60027;DHT22;45891;53.006;6.512;2023-03-14T04:42:44;9.00;99.90
60027;DHT22;45891;53.006;6.512;2023-03-14T04:45:10;9.00;99.90
60027;DHT22;45891;53.006;6.512;2023-03-14T04:47:36;9.00;99.90
60027;DHT22;45891;53.006;6.512;2023-03-14T04:50:02;8.90;99.90
60027;DHT22;45891;53.006;6.512;2023-03-14T04:52:27;9.00;99.90
60027;DHT22;45891;53.006;6.512;2023-03-14T04:54:53;8.90;99.90
60027;DHT22;45891;53.006;6.512;2023-03-14T04:57:19;8.90;99.90
60027;DHT22;45891;53.006;6.512;2023-03-14T04:59:45;8.90;99.90
60027;DHT22;45891;53.006;6.512;2023-03-14T05:02:11;8.90;99.90
60027;DHT22;45891;53.006;6.512;2023-03-14T05:04:37;9.00;99.90
60027;DHT22;45891;53.006;6.512;2023-03-14T05:07:03;8.90;99.90
60027;DHT22;45891;53.006;6.512;2023-03-14T05:09:29;9.00;99.90
60027;DHT22;45891;53.006;6.512;2023-03-14T05:11:55;8.90;99.90
60027;DHT22;45891;53.006;6.512;2023-03-14T05:14:21;8.90;99.90
60027;DHT22;45891;53.006;6.512;2023-03-14T05:16:47;9.00;99.90
60027;DHT22;45891;53.006;6.512;2023-03-14T05:19:12;8.90;99.90
60027;DHT22;45891;53.006;6.512;2023-03-14T05:21:38;9.00;99.90
60027;DHT22;45891;53.006;6.512;2023-03-14T05:24:04;9.00;99.90
60027;DHT22;45891;53.006;6.512;2023-03-14T05:26:30;9.00;99.90
60027;DHT22;45891;53.006;6.512;2023-03-14T05:28:56;9.00;99.90
60027;DHT22;45891;53.006;6.512;2023-03-14T05:31:22;9.00;99.90
60027;DHT22;45891;53.006;6.512;2023-03-14T05:33:48;8.90;99.90
60027;DHT22;45891;53.006;6.512;2023-03-14T05:36:14;8.90;99.90
60027;DHT22;45891;53.006;6.512;2023-03-14T05:38:40;8.90;99.90
60027;DHT22;45891;53.006;6.512;2023-03-14T05:41:06;8.80;99.90
60027;DHT22;45891;53.006;6.512;2023-03-14T05:43:32;8.80;99.90
60027;DHT22;45891;53.006;6.512;2023-03-14T05:45:58;8.80;99.90
60027;DHT22;45891;53.006;6.512;2023-03-14T05:48:23;8.70;99.90
60027;DHT22;45891;53.006;6.512;2023-03-14T05:50:54;8.70;99.90
60027;DHT22;45891;53.006;6.512;2023-03-14T05:53:20;8.80;99.90
60027;DHT22;45891;53.006;6.512;2023-03-14T05:55:46;8.70;99.90
60027;DHT22;45891;53.006;6.512;2023-03-14T05:58:12;8.70;99.90
60027;DHT22;45891;53.006;6.512;2023-03-14T06:00:38;8.70;99.90
60027;DHT22;45891;53.006;6.512;2023-03-14T06:03:04;8.70;99.90
60027;DHT22;45891;53.006;6.512;2023-03-14T06:05:30;8.70;99.90
60027;DHT22;45891;53.006;6.512;2023-03-14T06:07:56;8.70;99.90
60027;DHT22;45891;53.006;6.512;2023-03-14T06:10:22;8.70;99.90
60027;DHT22;45891;53.006;6.512;2023-03-14T06:12:47;8.70;99.90
60027;DHT22;45891;53.006;6.512;2023-03-14T06:15:13;8.70;99.90
60027;DHT22;45891;53.006;6.512;2023-03-14T06:17:39;8.70;99.90
60027;DHT22;45891;53.006;6.512;2023-03-14T06:20:06;8.70;99.90
60027;DHT22;45891;53.006;6.512;2023-03-14T06:22:32;8.70;99.90
60027;DHT22;45891;53.006;6.512;2023-03-14T06:24:58;8.70;99.90
60027;DHT22;45891;53.006;6.512;2023-03-14T06:27:23;8.70;99.90
60027;DHT22;45891;53.006;6.512;2023-03-14T06:29:49;8.70;99.90
60027;DHT22;45891;53.006;6.512;2023-03-14T06:32:15;8.70;99.90
60027;DHT22;45891;53.006;6.512;2023-03-14T06:34:41;8.70;99.90
60027;DHT22;45891;53.006;6.512;2023-03-14T06:37:07;8.70;99.90
60027;DHT22;45891;53.006;6.512;2023-03-14T06:39:33;8.70;99.90
60027;DHT22;45891;53.006;6.512;2023-03-14T06:41:59;8.70;99.90
60027;DHT22;45891;53.006;6.512;2023-03-14T06:44:25;8.70;99.90
60027;DHT22;45891;53.006;6.512;2023-03-14T06:46:52;8.70;99.90
60027;DHT22;45891;53.006;6.512;2023-03-14T06:49:18;8.60;99.90
60027;DHT22;45891;53.006;6.512;2023-03-14T06:51:44;8.60;99.90
60027;DHT22;45891;53.006;6.512;2023-03-14T06:54:10;8.60;99.90
60027;DHT22;45891;53.006;6.512;2023-03-14T06:56:35;8.60;99.90
60027;DHT22;45891;53.006;6.512;2023-03-14T06:59:01;8.60;99.90
60027;DHT22;45891;53.006;6.512;2023-03-14T07:01:28;8.10;99.90
60027;DHT22;45891;53.006;6.512;2023-03-14T07:03:55;7.30;99.90
60027;DHT22;45891;53.006;6.512;2023-03-14T07:06:21;7.00;99.90
60027;DHT22;45891;53.006;6.512;2023-03-14T07:08:48;7.00;99.90
60027;DHT22;45891;53.006;6.512;2023-03-14T07:11:14;6.80;99.90
60027;DHT22;45891;53.006;6.512;2023-03-14T07:13:40;6.70;99.90
60027;DHT22;45891;53.006;6.512;2023-03-14T07:16:06;6.60;99.90
60027;DHT22;45891;53.006;6.512;2023-03-14T07:18:32;6.30;99.90
60027;DHT22;45891;53.006;6.512;2023-03-14T07:20:58;6.20;99.90
60027;DHT22;45891;53.006;6.512;2023-03-14T07:23:25;6.00;99.90
60027;DHT22;45891;53.006;6.512;2023-03-14T07:25:51;5.80;99.90
60027;DHT22;45891;53.006;6.512;2023-03-14T07:28:19;5.60;99.90
60027;DHT22;45891;53.006;6.512;2023-03-14T07:30:48;5.50;99.90
60027;DHT22;45891;53.006;6.512;2023-03-14T07:33:14;5.30;99.90
60027;DHT22;45891;53.006;6.512;2023-03-14T07:35:40;5.20;99.90
60027;DHT22;45891;53.006;6.512;2023-03-14T07:38:06;5.00;99.90
60027;DHT22;45891;53.006;6.512;2023-03-14T07:40:32;4.90;99.90
60027;DHT22;45891;53.006;6.512;2023-03-14T07:42:58;4.80;99.90
60027;DHT22;45891;53.006;6.512;2023-03-14T07:45:24;4.80;99.90
60027;DHT22;45891;53.006;6.512;2023-03-14T07:47:50;4.70;99.90
60027;DHT22;45891;53.006;6.512;2023-03-14T07:50:16;4.50;99.90
60027;DHT22;45891;53.006;6.512;2023-03-14T07:52:42;4.50;99.90
60027;DHT22;45891;53.006;6.512;2023-03-14T07:55:08;4.40;99.90
60027;DHT22;45891;53.006;6.512;2023-03-14T07:57:34;4.40;99.90
60027;DHT22;45891;53.006;6.512;2023-03-14T08:00:00;4.40;99.90
60027;DHT22;45891;53.006;6.512;2023-03-14T08:02:26;4.50;99.90
60027;DHT22;45891;53.006;6.512;2023-03-14T08:04:52;4.50;99.90
60027;DHT22;45891;53.006;6.512;2023-03-14T08:07:18;4.50;99.90
60027;DHT22;45891;53.006;6.512;2023-03-14T08:09:43;4.50;99.90
60027;DHT22;45891;53.006;6.512;2023-03-14T08:12:09;4.50;99.90
60027;DHT22;45891;53.006;6.512;2023-03-14T08:14:35;4.60;99.90
60027;DHT22;45891;53.006;6.512;2023-03-14T08:17:01;4.60;99.90
60027;DHT22;45891;53.006;6.512;2023-03-14T08:19:27;4.70;99.90
60027;DHT22;45891;53.006;6.512;2023-03-14T08:21:53;4.70;99.90
60027;DHT22;45891;53.006;6.512;2023-03-14T08:24:19;4.80;99.90
60027;DHT22;45891;53.006;6.512;2023-03-14T08:26:45;4.80;99.90
60027;DHT22;45891;53.006;6.512;2023-03-14T08:29:11;4.90;99.90
60027;DHT22;45891;53.006;6.512;2023-03-14T08:31:38;4.80;99.90
60027;DHT22;45891;53.006;6.512;2023-03-14T08:34:04;4.90;99.90
60027;DHT22;45891;53.006;6.512;2023-03-14T08:36:32;5.00;99.90
60027;DHT22;45891;53.006;6.512;2023-03-14T08:38:58;5.10;99.90
60027;DHT22;45891;53.006;6.512;2023-03-14T08:41:24;5.00;99.90
60027;DHT22;45891;53.006;6.512;2023-03-14T08:43:50;5.10;99.90
60027;DHT22;45891;53.006;6.512;2023-03-14T08:46:16;5.10;99.90
60027;DHT22;45891;53.006;6.512;2023-03-14T08:48:42;5.20;99.90
60027;DHT22;45891;53.006;6.512;2023-03-14T08:51:09;5.30;99.90
60027;DHT22;45891;53.006;6.512;2023-03-14T08:53:36;5.40;99.90
60027;DHT22;45891;53.006;6.512;2023-03-14T08:56:02;5.50;99.90
60027;DHT22;45891;53.006;6.512;2023-03-14T08:58:29;5.50;99.90
60027;DHT22;45891;53.006;6.512;2023-03-14T09:00:55;5.60;99.90
60027;DHT22;45891;53.006;6.512;2023-03-14T09:03:22;5.60;99.90
60027;DHT22;45891;53.006;6.512;2023-03-14T09:05:49;5.70;99.90
60027;DHT22;45891;53.006;6.512;2023-03-14T09:08:15;5.70;99.90
60027;DHT22;45891;53.006;6.512;2023-03-14T09:10:41;5.70;99.90
60027;DHT22;45891;53.006;6.512;2023-03-14T09:13:07;5.70;99.90
60027;DHT22;45891;53.006;6.512;2023-03-14T09:15:33;5.70;99.90
60027;DHT22;45891;53.006;6.512;2023-03-14T09:17:59;5.70;99.90
60027;DHT22;45891;53.006;6.512;2023-03-14T09:20:25;5.70;99.90
60027;DHT22;45891;53.006;6.512;2023-03-14T09:22:51;5.80;99.90
60027;DHT22;45891;53.006;6.512;2023-03-14T09:25:17;5.80;99.90
60027;DHT22;45891;53.006;6.512;2023-03-14T09:27:43;5.90;99.90
60027;DHT22;45891;53.006;6.512;2023-03-14T09:30:09;6.00;99.90
60027;DHT22;45891;53.006;6.512;2023-03-14T09:32:35;6.10;99.90
60027;DHT22;45891;53.006;6.512;2023-03-14T09:35:01;6.50;99.90
60027;DHT22;45891;53.006;6.512;2023-03-14T09:37:27;6.70;99.90
60027;DHT22;45891;53.006;6.512;2023-03-14T09:39:53;6.70;99.90
60027;DHT22;45891;53.006;6.512;2023-03-14T09:42:21;6.70;99.90
60027;DHT22;45891;53.006;6.512;2023-03-14T09:47:14;6.50;99.90
60027;DHT22;45891;53.006;6.512;2023-03-14T09:49:40;6.50;99.90
60027;DHT22;45891;53.006;6.512;2023-03-14T09:54:46;6.50;99.90
60027;DHT22;45891;53.006;6.512;2023-03-14T09:57:17;6.40;99.90
60027;DHT22;45891;53.006;6.512;2023-03-14T09:59:45;6.50;99.90
60027;DHT22;45891;53.006;6.512;2023-03-14T10:02:16;6.50;99.90
60027;DHT22;45891;53.006;6.512;2023-03-14T10:04:43;6.50;99.90
60027;DHT22;45891;53.006;6.512;2023-03-14T10:07:17;6.50;99.90
60027;DHT22;45891;53.006;6.512;2023-03-14T10:09:45;6.50;99.90
60027;DHT22;45891;53.006;6.512;2023-03-14T10:12:13;6.60;99.90
60027;DHT22;45891;53.006;6.512;2023-03-14T10:14:46;6.50;99.90
60027;DHT22;45891;53.006;6.512;2023-03-14T10:17:13;6.40;99.90
60027;DHT22;45891;53.006;6.512;2023-03-14T10:19:53;6.40;99.90
60027;DHT22;45891;53.006;6.512;2023-03-14T10:22:19;6.40;99.90
60027;DHT22;45891;53.006;6.512;2023-03-14T10:24:53;6.40;99.90
60027;DHT22;45891;53.006;6.512;2023-03-14T10:27:26;6.40;99.90
60027;DHT22;45891;53.006;6.512;2023-03-14T10:29:56;6.40;99.90
60027;DHT22;45891;53.006;6.512;2023-03-14T10:32:28;6.40;99.90
60027;DHT22;45891;53.006;6.512;2023-03-14T10:35:05;6.40;99.90
60027;DHT22;45891;53.006;6.512;2023-03-14T10:37:31;6.50;99.90
60027;DHT22;45891;53.006;6.512;2023-03-14T10:40:00;6.80;99.90
60027;DHT22;45891;53.006;6.512;2023-03-14T10:42:34;7.10;99.90
60027;DHT22;45891;53.006;6.512;2023-03-14T10:45:05;7.20;99.90
60027;DHT22;45891;53.006;6.512;2023-03-14T10:47:33;7.70;99.90
60027;DHT22;45891;53.006;6.512;2023-03-14T10:50:21;7.60;99.90
60027;DHT22;45891;53.006;6.512;2023-03-14T10:52:48;7.60;99.90
60027;DHT22;45891;53.006;6.512;2023-03-14T10:55:14;7.50;99.90
60027;DHT22;45891;53.006;6.512;2023-03-14T10:57:41;7.70;99.90
60027;DHT22;45891;53.006;6.512;2023-03-14T11:00:14;8.10;99.90
60027;DHT22;45891;53.006;6.512;2023-03-14T11:08:04;9.00;99.90
60027;DHT22;45891;53.006;6.512;2023-03-14T11:10:34;8.30;99.90
60027;DHT22;45891;53.006;6.512;2023-03-14T11:13:03;7.70;99.90
60027;DHT22;45891;53.006;6.512;2023-03-14T11:15:34;7.40;99.90
60027;DHT22;45891;53.006;6.512;2023-03-14T11:20:40;7.60;99.90
60027;DHT22;45891;53.006;6.512;2023-03-14T11:33:18;8.10;99.50
60027;DHT22;45891;53.006;6.512;2023-03-14T11:35:53;7.80;99.90
60027;DHT22;45891;53.006;6.512;2023-03-14T11:40:49;7.20;99.50
60027;DHT22;45891;53.006;6.512;2023-03-14T11:43:27;7.50;99.80
60027;DHT22;45891;53.006;6.512;2023-03-14T11:45:54;7.80;99.70
60027;DHT22;45891;53.006;6.512;2023-03-14T11:51:04;9.40;99.90
60027;DHT22;45891;53.006;6.512;2023-03-14T11:56:00;9.00;98.70
60027;DHT22;45891;53.006;6.512;2023-03-14T11:58:30;9.00;99.20
60027;DHT22;45891;53.006;6.512;2023-03-14T12:00:57;9.10;96.90
60027;DHT22;45891;53.006;6.512;2023-03-14T12:06:16;8.70;97.90
60027;DHT22;45891;53.006;6.512;2023-03-14T12:08:58;9.50;99.30
60027;DHT22;45891;53.006;6.512;2023-03-14T12:11:35;10.60;96.50
60027;DHT22;45891;53.006;6.512;2023-03-14T12:14:03;11.10;94.30
60027;DHT22;45891;53.006;6.512;2023-03-14T12:16:43;10.30;94.50
60027;DHT22;45891;53.006;6.512;2023-03-14T12:19:21;9.40;93.70
60027;DHT22;45891;53.006;6.512;2023-03-14T12:21:58;9.60;96.20
60027;DHT22;45891;53.006;6.512;2023-03-14T12:24:25;9.80;95.50
60027;DHT22;45891;53.006;6.512;2023-03-14T12:26:53;9.60;95.40
60027;DHT22;45891;53.006;6.512;2023-03-14T12:29:19;9.60;96.50
60027;DHT22;45891;53.006;6.512;2023-03-14T12:32:05;9.40;96.20
60027;DHT22;45891;53.006;6.512;2023-03-14T12:34:32;9.70;97.40
60027;DHT22;45891;53.006;6.512;2023-03-14T12:37:19;10.30;95.10
60027;DHT22;45891;53.006;6.512;2023-03-14T12:39:57;9.90;95.60
60027;DHT22;45891;53.006;6.512;2023-03-14T12:42:45;9.80;95.60
60027;DHT22;45891;53.006;6.512;2023-03-14T12:45:24;10.80;96.00
60027;DHT22;45891;53.006;6.512;2023-03-14T12:47:52;11.70;94.30
60027;DHT22;45891;53.006;6.512;2023-03-14T12:50:19;11.40;93.50
60027;DHT22;45891;53.006;6.512;2023-03-14T12:55:21;10.40;94.50
60027;DHT22;45891;53.006;6.512;2023-03-14T12:57:52;9.80;94.80
60027;DHT22;45891;53.006;6.512;2023-03-14T13:00:21;9.40;94.00
60027;DHT22;45891;53.006;6.512;2023-03-14T13:02:48;9.60;92.70
60027;DHT22;45891;53.006;6.512;2023-03-14T13:05:23;10.30;93.20
60027;DHT22;45891;53.006;6.512;2023-03-14T13:10:26;9.70;93.80
60027;DHT22;45891;53.006;6.512;2023-03-14T13:15:32;9.30;93.90
60027;DHT22;45891;53.006;6.512;2023-03-14T13:17:59;8.90;92.80
60027;DHT22;45891;53.006;6.512;2023-03-14T13:20:34;8.70;93.80
60027;DHT22;45891;53.006;6.512;2023-03-14T13:23:01;9.50;93.70
60027;DHT22;45891;53.006;6.512;2023-03-14T13:25:33;9.40;93.70
60027;DHT22;45891;53.006;6.512;2023-03-14T13:28:00;10.00;93.90
60027;DHT22;45891;53.006;6.512;2023-03-14T13:30:27;9.70;93.00
60027;DHT22;45891;53.006;6.512;2023-03-14T13:32:53;9.10;94.30
60027;DHT22;45891;53.006;6.512;2023-03-14T13:35:27;9.50;93.60
60027;DHT22;45891;53.006;6.512;2023-03-14T13:37:55;9.90;92.80
60027;DHT22;45891;53.006;6.512;2023-03-14T13:40:24;9.90;93.50
60027;DHT22;45891;53.006;6.512;2023-03-14T13:42:58;10.10;92.90
60027;DHT22;45891;53.006;6.512;2023-03-14T13:45:24;10.30;91.60
60027;DHT22;45891;53.006;6.512;2023-03-14T13:47:51;9.60;92.00
60027;DHT22;45891;53.006;6.512;2023-03-14T13:50:17;9.80;91.10
60027;DHT22;45891;53.006;6.512;2023-03-14T13:52:46;10.00;91.30
60027;DHT22;45891;53.006;6.512;2023-03-14T13:55:15;10.30;91.70
60027;DHT22;45891;53.006;6.512;2023-03-14T13:57:45;10.80;92.20
60027;DHT22;45891;53.006;6.512;2023-03-14T14:00:19;11.70;92.30
60027;DHT22;45891;53.006;6.512;2023-03-14T14:02:45;12.10;91.30
60027;DHT22;45891;53.006;6.512;2023-03-14T14:05:11;11.90;91.70
60027;DHT22;45891;53.006;6.512;2023-03-14T14:07:38;11.00;91.50
60027;DHT22;45891;53.006;6.512;2023-03-14T14:10:04;9.50;91.80
60027;DHT22;45891;53.006;6.512;2023-03-14T14:12:37;8.70;92.50
60027;DHT22;45891;53.006;6.512;2023-03-14T14:15:11;8.20;93.20
60027;DHT22;45891;53.006;6.512;2023-03-14T14:17:51;8.00;92.90
60027;DHT22;45891;53.006;6.512;2023-03-14T14:20:23;7.80;93.00
60027;DHT22;45891;53.006;6.512;2023-03-14T14:22:50;7.60;93.10
60027;DHT22;45891;53.006;6.512;2023-03-14T14:25:16;8.40;93.30
60027;DHT22;45891;53.006;6.512;2023-03-14T14:27:43;9.80;92.30
60027;DHT22;45891;53.006;6.512;2023-03-14T14:32:45;10.70;91.90
60027;DHT22;45891;53.006;6.512;2023-03-14T14:35:25;9.50;92.20
60027;DHT22;45891;53.006;6.512;2023-03-14T14:37:51;8.80;92.70
60027;DHT22;45891;53.006;6.512;2023-03-14T14:40:21;8.20;93.30
60027;DHT22;45891;53.006;6.512;2023-03-14T14:42:48;7.90;94.30
60027;DHT22;45891;53.006;6.512;2023-03-14T14:45:22;7.80;95.00
60027;DHT22;45891;53.006;6.512;2023-03-14T14:47:52;8.30;95.30
60027;DHT22;45891;53.006;6.512;2023-03-14T14:50:32;8.20;94.10
60027;DHT22;45891;53.006;6.512;2023-03-14T14:52:58;8.10;94.90
60027;DHT22;45891;53.006;6.512;2023-03-14T14:55:29;8.10;95.30
60027;DHT22;45891;53.006;6.512;2023-03-14T14:57:56;7.70;95.00
60027;DHT22;45891;53.006;6.512;2023-03-14T15:00:23;7.50;94.90
60027;DHT22;45891;53.006;6.512;2023-03-14T15:02:50;7.90;95.30
60027;DHT22;45891;53.006;6.512;2023-03-14T15:05:18;9.40;93.70
60027;DHT22;45891;53.006;6.512;2023-03-14T15:07:45;10.60;93.70
60027;DHT22;45891;53.006;6.512;2023-03-14T15:10:18;11.30;92.40
60027;DHT22;45891;53.006;6.512;2023-03-14T15:12:44;10.80;91.60
60027;DHT22;45891;53.006;6.512;2023-03-14T15:15:10;10.80;91.80
60027;DHT22;45891;53.006;6.512;2023-03-14T15:17:37;10.60;90.90
60027;DHT22;45891;53.006;6.512;2023-03-14T15:20:04;10.10;90.40
60027;DHT22;45891;53.006;6.512;2023-03-14T15:22:30;8.70;91.40
60027;DHT22;45891;53.006;6.512;2023-03-14T15:24:56;8.10;91.80
60027;DHT22;45891;53.006;6.512;2023-03-14T15:27:22;7.60;92.40
60027;DHT22;45891;53.006;6.512;2023-03-14T15:29:49;7.30;93.20
60027;DHT22;45891;53.006;6.512;2023-03-14T15:32:15;7.00;94.20
60027;DHT22;45891;53.006;6.512;2023-03-14T15:34:44;7.00;94.90
60027;DHT22;45891;53.006;6.512;2023-03-14T15:37:12;6.90;94.90
60027;DHT22;45891;53.006;6.512;2023-03-14T15:39:39;7.20;94.90
60027;DHT22;45891;53.006;6.512;2023-03-14T15:42:05;8.30;94.30
60027;DHT22;45891;53.006;6.512;2023-03-14T15:44:31;9.20;93.90
60027;DHT22;45891;53.006;6.512;2023-03-14T15:46:57;8.70;94.20
60027;DHT22;45891;53.006;6.512;2023-03-14T15:49:23;8.20;94.10
60027;DHT22;45891;53.006;6.512;2023-03-14T15:51:49;7.50;94.20
60027;DHT22;45891;53.006;6.512;2023-03-14T15:54:15;7.10;94.60
60027;DHT22;45891;53.006;6.512;2023-03-14T15:56:41;6.70;95.70
60027;DHT22;45891;53.006;6.512;2023-03-14T15:59:07;6.10;98.70
60027;DHT22;45891;53.006;6.512;2023-03-14T16:01:33;5.70;99.90
60027;DHT22;45891;53.006;6.512;2023-03-14T16:03:59;5.40;99.90
60027;DHT22;45891;53.006;6.512;2023-03-14T16:06:25;5.40;99.90
60027;DHT22;45891;53.006;6.512;2023-03-14T16:08:51;5.20;99.90
60027;DHT22;45891;53.006;6.512;2023-03-14T16:11:17;5.20;99.90
60027;DHT22;45891;53.006;6.512;2023-03-14T16:13:46;5.20;99.90
60027;DHT22;45891;53.006;6.512;2023-03-14T16:16:12;5.20;99.90
60027;DHT22;45891;53.006;6.512;2023-03-14T16:18:38;5.10;99.90
60027;DHT22;45891;53.006;6.512;2023-03-14T16:21:05;5.10;99.90
60027;DHT22;45891;53.006;6.512;2023-03-14T16:23:32;5.00;99.90
60027;DHT22;45891;53.006;6.512;2023-03-14T16:25:59;4.80;99.90
60027;DHT22;45891;53.006;6.512;2023-03-14T16:28:25;4.30;99.90
60027;DHT22;45891;53.006;6.512;2023-03-14T16:30:51;4.10;99.90
60027;DHT22;45891;53.006;6.512;2023-03-14T16:33:17;4.00;99.90
60027;DHT22;45891;53.006;6.512;2023-03-14T16:35:59;3.90;99.90